Decoded Metar for KRCZ (ROCKINGHAM in NC, USA) (IATA:RCZ) | Meteo·Mobile Aviation Weather
aviador You're here:

KRCZ Decoded Metar

ROCKINGHAM in NC, USA
Report Time2019-07-22 16:00:00
UTC Time2019-07-22 16:22:17
Flight Rules vfr VFR
Wind210° at 09 Gusting to 16 kt
W.Decomp.*RWY 22: 9.0 kt HW 0.3 kt LCW
RWY 14: 1.9 kt HW 8.8 kt RCW
Visibility9999 m
Phenomena:N/A
Clouds:Broken 050 Hf
Expected CloudBase > 7,200 ft AGL from Temp-Dew spread
Ceiling5,000 ft
Temp33°C (ISA +19)
Dew Point15°C (34% RH)
Heat Index32.6°C
AAT31.4°C
QNH1016 hPa
Density Alt2,618 ft
Elevation358 ft
Report Wrong Elevation
Raw Report
METAR KRCZ 221600Z AUTO 21009G16KT 10SM BKN050 33/15 A2999 RMK AO2
T03300151=

Extra information for KRCZ:More info

Metar Taf Metar & Taf Last 4 Metars F.Rules Stats Wind Profile Meteogram Temp Stats Airport Information Weather charts Add Link Nearby VenuesMetar ALERT Operation Metar Decoded Social comments

AIRNAV info for KRCZ